Main page
METAR-TAF:

METAR-TAF

Airports :

Vienna International Airport

Vienna, Austria

latitude: 48-07N, longitude: 016-34E, elevation: 183 m

Current weather observation

The report was made 33 minutes ago, at 04:50 UTC
Wind 3 kt from the South/Southeast
Temperature 4°C
Humidity 81%
Pressure 1030 hPa
Visibility 10 km or more
no clouds below 1500 m and no cumulonimbus

METAR: LOWW 200450Z 15003KT CAVOK 04/01 Q1030 NOSIG

Time: 07:23 (05:23 UTC)

Forecast

The report was made 3 hours and 8 minutes ago, at 02:15 UTC
Forecast valid from 20 at 03 UTC to 21 at 09 UTC
Wind 2 kt from variable directions
Visibility 10 km or more
no clouds below 1500 m and no cumulonimbus

TAF: LOWW 200215Z 2003/2109 VRB02KT CAVOK TX22/2015Z TN06/2004Z

Weather observations and forecasts of more than 4000 airports (METAR and TAF reports).

The available stations are represented by yellow and red dots on the map.

Hover mouse over dot to see the name of the station.

Then click to see weather observations and forecasts.

To change the map : click on the green buttons with a black cross to zoom in, on the green button with a dash to zoom out, or on the green arrows for adjacent maps.


METAR-TAF: